sensor_id;sensor_type;location;lat;lon;timestamp;pressure;altitude;pressure_sealevel;temperature;humidity
18988;BME280;5494;51.796;10.952;2022-10-16T00:01:47;98577.75;;;15.40;100.00
18988;BME280;5494;51.796;10.952;2022-10-16T00:04:17;98585.94;;;15.35;100.00
18988;BME280;5494;51.796;10.952;2022-10-16T00:06:45;98579.41;;;15.30;100.00
18988;BME280;5494;51.796;10.952;2022-10-16T00:09:14;98587.50;;;15.27;100.00
18988;BME280;5494;51.796;10.952;2022-10-16T00:11:42;98585.09;;;15.24;100.00
18988;BME280;5494;51.796;10.952;2022-10-16T00:14:14;98576.41;;;15.23;100.00
18988;BME280;5494;51.796;10.952;2022-10-16T00:16:43;98577.72;;;15.18;100.00
18988;BME280;5494;51.796;10.952;2022-10-16T00:19:12;98578.06;;;15.13;100.00
18988;BME280;5494;51.796;10.952;2022-10-16T00:21:41;98574.25;;;15.06;100.00
18988;BME280;5494;51.796;10.952;2022-10-16T00:24:10;98585.28;;;14.98;100.00
18988;BME280;5494;51.796;10.952;2022-10-16T00:26:39;98579.78;;;14.90;100.00
18988;BME280;5494;51.796;10.952;2022-10-16T00:29:08;98588.84;;;14.86;100.00
18988;BME280;5494;51.796;10.952;2022-10-16T00:31:38;98582.59;;;14.76;100.00
18988;BME280;5494;51.796;10.952;2022-10-16T00:34:07;98584.50;;;14.74;100.00
18988;BME280;5494;51.796;10.952;2022-10-16T00:36:36;98582.56;;;14.65;100.00
18988;BME280;5494;51.796;10.952;2022-10-16T00:39:05;98584.06;;;14.56;100.00
18988;BME280;5494;51.796;10.952;2022-10-16T00:41:34;98587.03;;;14.52;100.00
18988;BME280;5494;51.796;10.952;2022-10-16T00:44:43;98589.47;;;14.42;100.00
18988;BME280;5494;51.796;10.952;2022-10-16T00:47:21;98603.81;;;14.37;100.00
18988;BME280;5494;51.796;10.952;2022-10-16T00:49:58;98603.50;;;14.29;100.00
18988;BME280;5494;51.796;10.952;2022-10-16T00:52:28;98599.88;;;14.18;100.00
18988;BME280;5494;51.796;10.952;2022-10-16T00:54:59;98605.22;;;14.17;100.00
18988;BME280;5494;51.796;10.952;2022-10-16T00:57:29;98606.47;;;14.11;100.00
18988;BME280;5494;51.796;10.952;2022-10-16T00:59:58;98615.50;;;14.07;100.00
18988;BME280;5494;51.796;10.952;2022-10-16T01:02:28;98620.09;;;14.04;100.00
18988;BME280;5494;51.796;10.952;2022-10-16T01:04:57;98616.66;;;14.03;100.00
18988;BME280;5494;51.796;10.952;2022-10-16T01:07:41;98619.03;;;14.06;100.00
18988;BME280;5494;51.796;10.952;2022-10-16T01:10:27;98602.31;;;14.09;100.00
18988;BME280;5494;51.796;10.952;2022-10-16T01:13:04;98607.56;;;14.09;100.00
18988;BME280;5494;51.796;10.952;2022-10-16T01:15:37;98608.16;;;14.12;100.00
18988;BME280;5494;51.796;10.952;2022-10-16T01:18:15;98621.31;;;14.11;100.00
18988;BME280;5494;51.796;10.952;2022-10-16T01:20:52;98619.56;;;14.11;100.00
18988;BME280;5494;51.796;10.952;2022-10-16T01:23:37;98624.91;;;14.10;100.00
18988;BME280;5494;51.796;10.952;2022-10-16T01:26:28;98627.63;;;14.08;100.00
18988;BME280;5494;51.796;10.952;2022-10-16T01:29:06;98627.19;;;14.14;100.00
18988;BME280;5494;51.796;10.952;2022-10-16T01:31:41;98614.84;;;14.16;100.00
18988;BME280;5494;51.796;10.952;2022-10-16T01:34:17;98600.22;;;14.14;100.00
18988;BME280;5494;51.796;10.952;2022-10-16T01:36:53;98594.16;;;14.13;100.00
18988;BME280;5494;51.796;10.952;2022-10-16T01:39:30;98599.72;;;14.09;100.00
18988;BME280;5494;51.796;10.952;2022-10-16T01:42:09;98604.84;;;14.10;100.00
18988;BME280;5494;51.796;10.952;2022-10-16T01:44:42;98614.56;;;14.08;100.00
18988;BME280;5494;51.796;10.952;2022-10-16T01:47:14;98611.66;;;14.00;100.00
18988;BME280;5494;51.796;10.952;2022-10-16T01:49:44;98616.38;;;13.95;100.00
18988;BME280;5494;51.796;10.952;2022-10-16T01:52:18;98613.22;;;13.90;100.00
18988;BME280;5494;51.796;10.952;2022-10-16T01:54:54;98619.81;;;13.96;100.00
18988;BME280;5494;51.796;10.952;2022-10-16T01:57:25;98619.41;;;13.89;100.00
18988;BME280;5494;51.796;10.952;2022-10-16T02:00:03;98629.13;;;13.87;100.00
18988;BME280;5494;51.796;10.952;2022-10-16T02:02:40;98631.50;;;13.90;100.00
18988;BME280;5494;51.796;10.952;2022-10-16T02:05:17;98630.81;;;13.88;100.00
18988;BME280;5494;51.796;10.952;2022-10-16T02:07:49;98620.13;;;13.91;100.00
18988;BME280;5494;51.796;10.952;2022-10-16T02:10:18;98624.75;;;13.88;100.00
18988;BME280;5494;51.796;10.952;2022-10-16T02:12:54;98626.50;;;13.87;100.00
18988;BME280;5494;51.796;10.952;2022-10-16T02:15:25;98623.66;;;13.90;100.00
18988;BME280;5494;51.796;10.952;2022-10-16T02:17:53;98639.16;;;13.93;100.00
18988;BME280;5494;51.796;10.952;2022-10-16T02:20:27;98637.47;;;13.92;100.00
18988;BME280;5494;51.796;10.952;2022-10-16T02:22:58;98639.16;;;13.93;100.00
18988;BME280;5494;51.796;10.952;2022-10-16T02:25:32;98664.13;;;13.97;100.00
18988;BME280;5494;51.796;10.952;2022-10-16T02:28:08;98653.47;;;14.00;100.00
18988;BME280;5494;51.796;10.952;2022-10-16T02:30:45;98645.72;;;13.99;100.00
18988;BME280;5494;51.796;10.952;2022-10-16T02:33:16;98645.81;;;13.97;100.00
18988;BME280;5494;51.796;10.952;2022-10-16T02:35:49;98660.56;;;13.98;100.00
18988;BME280;5494;51.796;10.952;2022-10-16T02:38:20;98647.00;;;13.93;100.00
18988;BME280;5494;51.796;10.952;2022-10-16T02:40:50;98654.81;;;13.93;100.00
18988;BME280;5494;51.796;10.952;2022-10-16T02:43:19;98644.38;;;13.93;100.00
18988;BME280;5494;51.796;10.952;2022-10-16T02:45:49;98648.03;;;13.91;100.00
18988;BME280;5494;51.796;10.952;2022-10-16T02:48:18;98648.34;;;13.86;100.00
18988;BME280;5494;51.796;10.952;2022-10-16T02:50:47;98643.22;;;13.85;100.00
18988;BME280;5494;51.796;10.952;2022-10-16T02:53:16;98650.78;;;13.89;100.00
18988;BME280;5494;51.796;10.952;2022-10-16T02:55:45;98655.16;;;13.89;100.00
18988;BME280;5494;51.796;10.952;2022-10-16T02:58:13;98667.38;;;13.88;100.00
18988;BME280;5494;51.796;10.952;2022-10-16T03:00:42;98664.97;;;13.85;100.00
18988;BME280;5494;51.796;10.952;2022-10-16T03:03:12;98658.81;;;13.86;100.00
18988;BME280;5494;51.796;10.952;2022-10-16T03:05:43;98657.13;;;13.85;100.00
18988;BME280;5494;51.796;10.952;2022-10-16T03:08:13;98664.03;;;13.86;100.00
18988;BME280;5494;51.796;10.952;2022-10-16T03:10:42;98661.63;;;13.83;100.00
18988;BME280;5494;51.796;10.952;2022-10-16T03:13:11;98663.72;;;13.78;100.00
18988;BME280;5494;51.796;10.952;2022-10-16T03:15:39;98656.63;;;13.80;100.00
18988;BME280;5494;51.796;10.952;2022-10-16T03:18:08;98663.63;;;13.79;100.00
18988;BME280;5494;51.796;10.952;2022-10-16T03:20:38;98650.25;;;13.71;100.00
18988;BME280;5494;51.796;10.952;2022-10-16T03:23:07;98656.22;;;13.73;100.00
18988;BME280;5494;51.796;10.952;2022-10-16T03:25:36;98659.84;;;13.71;100.00
18988;BME280;5494;51.796;10.952;2022-10-16T03:28:05;98657.34;;;13.69;100.00
18988;BME280;5494;51.796;10.952;2022-10-16T03:30:34;98658.19;;;13.70;100.00
18988;BME280;5494;51.796;10.952;2022-10-16T03:33:02;98662.56;;;13.69;100.00
18988;BME280;5494;51.796;10.952;2022-10-16T03:35:32;98671.78;;;13.75;100.00
18988;BME280;5494;51.796;10.952;2022-10-16T03:38:02;98656.31;;;13.72;100.00
18988;BME280;5494;51.796;10.952;2022-10-16T03:40:31;98658.91;;;13.72;100.00
18988;BME280;5494;51.796;10.952;2022-10-16T03:43:00;98662.28;;;13.74;100.00
18988;BME280;5494;51.796;10.952;2022-10-16T03:45:28;98651.09;;;13.72;100.00
18988;BME280;5494;51.796;10.952;2022-10-16T03:47:57;98642.91;;;13.76;100.00
18988;BME280;5494;51.796;10.952;2022-10-16T03:50:25;98637.59;;;13.78;100.00
18988;BME280;5494;51.796;10.952;2022-10-16T03:52:54;98637.41;;;13.81;100.00
18988;BME280;5494;51.796;10.952;2022-10-16T03:55:24;98653.06;;;13.81;100.00
18988;BME280;5494;51.796;10.952;2022-10-16T03:57:52;98671.13;;;13.84;100.00
18988;BME280;5494;51.796;10.952;2022-10-16T04:00:21;98669.44;;;13.83;100.00
18988;BME280;5494;51.796;10.952;2022-10-16T04:02:50;98672.19;;;13.82;100.00
18988;BME280;5494;51.796;10.952;2022-10-16T04:05:19;98666.97;;;13.82;100.00
18988;BME280;5494;51.796;10.952;2022-10-16T04:07:47;98660.81;;;13.83;100.00
18988;BME280;5494;51.796;10.952;2022-10-16T04:10:15;98674.69;;;13.83;100.00
18988;BME280;5494;51.796;10.952;2022-10-16T04:12:45;98679.91;;;13.83;100.00
18988;BME280;5494;51.796;10.952;2022-10-16T04:15:14;98680.97;;;13.80;100.00
18988;BME280;5494;51.796;10.952;2022-10-16T04:17:43;98682.84;;;13.78;100.00
18988;BME280;5494;51.796;10.952;2022-10-16T04:20:12;98685.69;;;13.75;100.00
18988;BME280;5494;51.796;10.952;2022-10-16T04:22:40;98682.53;;;13.70;100.00
18988;BME280;5494;51.796;10.952;2022-10-16T04:25:09;98678.38;;;13.68;100.00
18988;BME280;5494;51.796;10.952;2022-10-16T04:27:38;98678.16;;;13.58;100.00
18988;BME280;5494;51.796;10.952;2022-10-16T04:30:14;98692.47;;;13.53;100.00
18988;BME280;5494;51.796;10.952;2022-10-16T04:32:42;98696.00;;;13.52;100.00
18988;BME280;5494;51.796;10.952;2022-10-16T04:35:11;98699.97;;;13.45;100.00
18988;BME280;5494;51.796;10.952;2022-10-16T04:37:39;98706.53;;;13.37;100.00
18988;BME280;5494;51.796;10.952;2022-10-16T04:40:09;98708.13;;;13.40;100.00
18988;BME280;5494;51.796;10.952;2022-10-16T04:42:37;98696.50;;;13.31;100.00
18988;BME280;5494;51.796;10.952;2022-10-16T04:45:08;98679.69;;;13.35;100.00
18988;BME280;5494;51.796;10.952;2022-10-16T04:47:43;98684.19;;;13.33;100.00
18988;BME280;5494;51.796;10.952;2022-10-16T04:50:12;98682.19;;;13.24;100.00
18988;BME280;5494;51.796;10.952;2022-10-16T04:52:58;98682.97;;;13.12;100.00
18988;BME280;5494;51.796;10.952;2022-10-16T04:55:26;98687.84;;;13.04;100.00
18988;BME280;5494;51.796;10.952;2022-10-16T04:57:55;98696.78;;;13.00;100.00
18988;BME280;5494;51.796;10.952;2022-10-16T05:00:23;98706.78;;;12.93;100.00
18988;BME280;5494;51.796;10.952;2022-10-16T05:02:53;98696.91;;;12.98;100.00
18988;BME280;5494;51.796;10.952;2022-10-16T05:05:22;98697.53;;;13.02;100.00
18988;BME280;5494;51.796;10.952;2022-10-16T05:07:50;98689.50;;;12.92;100.00
18988;BME280;5494;51.796;10.952;2022-10-16T05:10:19;98692.38;;;12.88;100.00
18988;BME280;5494;51.796;10.952;2022-10-16T05:12:48;98693.44;;;12.85;100.00
18988;BME280;5494;51.796;10.952;2022-10-16T05:15:18;98697.91;;;12.83;100.00
18988;BME280;5494;51.796;10.952;2022-10-16T05:17:47;98712.91;;;12.80;100.00
18988;BME280;5494;51.796;10.952;2022-10-16T05:20:17;98711.81;;;12.70;100.00
18988;BME280;5494;51.796;10.952;2022-10-16T05:22:45;98721.88;;;12.76;100.00
18988;BME280;5494;51.796;10.952;2022-10-16T05:25:14;98716.94;;;12.71;100.00
18988;BME280;5494;51.796;10.952;2022-10-16T05:27:46;98719.16;;;12.77;100.00
18988;BME280;5494;51.796;10.952;2022-10-16T05:30:15;98725.94;;;12.80;100.00
18988;BME280;5494;51.796;10.952;2022-10-16T05:32:47;98719.88;;;12.79;100.00
18988;BME280;5494;51.796;10.952;2022-10-16T05:35:19;98716.16;;;12.83;100.00
18988;BME280;5494;51.796;10.952;2022-10-16T05:37:48;98724.59;;;12.87;100.00
18988;BME280;5494;51.796;10.952;2022-10-16T05:40:17;98719.03;;;12.93;100.00
18988;BME280;5494;51.796;10.952;2022-10-16T05:42:45;98717.28;;;13.06;100.00
18988;BME280;5494;51.796;10.952;2022-10-16T05:45:14;98711.03;;;13.09;100.00
18988;BME280;5494;51.796;10.952;2022-10-16T05:47:42;98705.63;;;13.12;100.00
18988;BME280;5494;51.796;10.952;2022-10-16T05:50:11;98698.63;;;13.12;100.00
18988;BME280;5494;51.796;10.952;2022-10-16T05:52:41;98712.03;;;13.20;100.00
18988;BME280;5494;51.796;10.952;2022-10-16T05:55:10;98710.38;;;13.32;100.00
18988;BME280;5494;51.796;10.952;2022-10-16T05:57:38;98692.63;;;13.37;100.00
18988;BME280;5494;51.796;10.952;2022-10-16T06:00:09;98701.13;;;13.40;100.00
18988;BME280;5494;51.796;10.952;2022-10-16T06:02:41;98721.59;;;13.47;100.00
18988;BME280;5494;51.796;10.952;2022-10-16T06:05:10;98716.47;;;13.58;100.00
18988;BME280;5494;51.796;10.952;2022-10-16T06:07:38;98724.22;;;13.72;100.00
18988;BME280;5494;51.796;10.952;2022-10-16T06:10:09;98761.56;;;13.87;100.00
18988;BME280;5494;51.796;10.952;2022-10-16T06:12:38;98754.75;;;13.97;100.00
18988;BME280;5494;51.796;10.952;2022-10-16T06:15:08;98754.75;;;14.22;100.00
18988;BME280;5494;51.796;10.952;2022-10-16T06:17:37;98758.31;;;14.21;100.00
18988;BME280;5494;51.796;10.952;2022-10-16T06:20:06;98757.97;;;14.26;100.00
18988;BME280;5494;51.796;10.952;2022-10-16T06:22:35;98749.72;;;14.32;100.00
18988;BME280;5494;51.796;10.952;2022-10-16T06:25:05;98757.69;;;14.43;100.00
18988;BME280;5494;51.796;10.952;2022-10-16T06:27:35;98759.13;;;14.47;100.00
18988;BME280;5494;51.796;10.952;2022-10-16T06:30:05;98758.19;;;14.48;100.00
18988;BME280;5494;51.796;10.952;2022-10-16T06:32:34;98768.97;;;14.56;100.00
18988;BME280;5494;51.796;10.952;2022-10-16T06:35:03;98773.44;;;14.67;100.00
18988;BME280;5494;51.796;10.952;2022-10-16T06:37:32;98770.41;;;14.73;100.00
18988;BME280;5494;51.796;10.952;2022-10-16T06:40:01;98780.97;;;14.71;100.00
18988;BME280;5494;51.796;10.952;2022-10-16T06:42:31;98784.59;;;14.81;100.00
18988;BME280;5494;51.796;10.952;2022-10-16T06:45:01;98800.69;;;14.88;100.00
18988;BME280;5494;51.796;10.952;2022-10-16T06:47:29;98802.13;;;15.05;100.00
18988;BME280;5494;51.796;10.952;2022-10-16T06:49:58;98811.72;;;15.17;100.00
18988;BME280;5494;51.796;10.952;2022-10-16T06:52:28;98821.38;;;15.40;98.85
18988;BME280;5494;51.796;10.952;2022-10-16T06:54:57;98827.72;;;15.49;97.61
18988;BME280;5494;51.796;10.952;2022-10-16T06:57:27;98819.03;;;15.48;97.05
18988;BME280;5494;51.796;10.952;2022-10-16T06:59:55;98824.13;;;15.62;95.86
18988;BME280;5494;51.796;10.952;2022-10-16T07:02:25;98820.97;;;15.57;96.49
18988;BME280;5494;51.796;10.952;2022-10-16T07:04:54;98825.19;;;15.60;96.91
18988;BME280;5494;51.796;10.952;2022-10-16T07:07:24;98833.31;;;15.68;95.85
18988;BME280;5494;51.796;10.952;2022-10-16T07:09:53;98835.00;;;15.69;96.00
18988;BME280;5494;51.796;10.952;2022-10-16T07:12:22;98838.69;;;15.77;96.54
18988;BME280;5494;51.796;10.952;2022-10-16T07:14:51;98839.22;;;15.83;95.96
18988;BME280;5494;51.796;10.952;2022-10-16T07:17:21;98857.94;;;15.89;94.63
18988;BME280;5494;51.796;10.952;2022-10-16T07:19:51;98861.63;;;15.98;94.57
18988;BME280;5494;51.796;10.952;2022-10-16T07:22:21;98854.28;;;16.03;93.89
18988;BME280;5494;51.796;10.952;2022-10-16T07:24:50;98854.03;;;16.06;94.35
18988;BME280;5494;51.796;10.952;2022-10-16T07:27:19;98856.72;;;16.17;93.25
18988;BME280;5494;51.796;10.952;2022-10-16T07:29:51;98871.25;;;16.21;92.66
18988;BME280;5494;51.796;10.952;2022-10-16T07:32:20;98872.09;;;16.22;93.44
18988;BME280;5494;51.796;10.952;2022-10-16T07:34:48;98882.69;;;16.20;93.68
18988;BME280;5494;51.796;10.952;2022-10-16T07:37:18;98891.94;;;16.37;92.11
18988;BME280;5494;51.796;10.952;2022-10-16T07:39:47;98882.84;;;16.30;92.68
18988;BME280;5494;51.796;10.952;2022-10-16T07:42:16;98886.63;;;16.26;92.72
18988;BME280;5494;51.796;10.952;2022-10-16T07:44:44;98893.34;;;16.30;92.92
18988;BME280;5494;51.796;10.952;2022-10-16T07:47:13;98892.66;;;16.50;91.36
18988;BME280;5494;51.796;10.952;2022-10-16T07:49:42;98884.91;;;16.48;91.70
18988;BME280;5494;51.796;10.952;2022-10-16T07:52:11;98883.47;;;16.44;91.02
18988;BME280;5494;51.796;10.952;2022-10-16T07:54:41;98892.56;;;16.51;90.94
18988;BME280;5494;51.796;10.952;2022-10-16T07:57:10;98895.94;;;16.65;90.91
18988;BME280;5494;51.796;10.952;2022-10-16T07:59:38;98899.38;;;16.87;89.93
18988;BME280;5494;51.796;10.952;2022-10-16T08:02:07;98899.75;;;16.83;89.47
18988;BME280;5494;51.796;10.952;2022-10-16T08:04:36;98898.09;;;16.71;89.40
18988;BME280;5494;51.796;10.952;2022-10-16T08:07:07;98890.94;;;16.73;89.51
18988;BME280;5494;51.796;10.952;2022-10-16T08:09:36;98885.22;;;16.79;89.01
18988;BME280;5494;51.796;10.952;2022-10-16T08:12:07;98883.41;;;16.68;88.70
18988;BME280;5494;51.796;10.952;2022-10-16T08:14:37;98893.06;;;16.68;88.85
18988;BME280;5494;51.796;10.952;2022-10-16T08:17:08;98892.38;;;16.66;89.21
18988;BME280;5494;51.796;10.952;2022-10-16T08:19:37;98893.41;;;16.74;88.71
18988;BME280;5494;51.796;10.952;2022-10-16T08:22:06;98899.28;;;16.78;88.18
18988;BME280;5494;51.796;10.952;2022-10-16T08:24:35;98907.06;;;16.79;87.73
18988;BME280;5494;51.796;10.952;2022-10-16T08:27:05;98919.44;;;16.77;88.13
18988;BME280;5494;51.796;10.952;2022-10-16T08:29:36;98918.25;;;16.81;87.56
18988;BME280;5494;51.796;10.952;2022-10-16T08:32:05;98921.72;;;16.82;87.66
18988;BME280;5494;51.796;10.952;2022-10-16T08:34:34;98927.47;;;16.87;87.63
18988;BME280;5494;51.796;10.952;2022-10-16T08:37:02;98928.16;;;16.89;86.93
18988;BME280;5494;51.796;10.952;2022-10-16T08:39:31;98925.44;;;16.90;86.51
18988;BME280;5494;51.796;10.952;2022-10-16T08:42:21;98927.69;;;16.84;86.59
18988;BME280;5494;51.796;10.952;2022-10-16T08:48:20;98929.72;;;17.03;86.64
18988;BME280;5494;51.796;10.952;2022-10-16T08:50:52;98935.34;;;17.09;85.93
18988;BME280;5494;51.796;10.952;2022-10-16T08:53:28;98937.97;;;17.20;85.38
18988;BME280;5494;51.796;10.952;2022-10-16T08:55:58;98951.44;;;17.38;84.81
18988;BME280;5494;51.796;10.952;2022-10-16T08:58:30;98947.25;;;17.47;83.49
18988;BME280;5494;51.796;10.952;2022-10-16T09:01:01;98944.25;;;17.51;83.28
18988;BME280;5494;51.796;10.952;2022-10-16T09:03:50;98947.22;;;17.58;82.83
18988;BME280;5494;51.796;10.952;2022-10-16T09:06:40;98958.47;;;17.71;81.95
18988;BME280;5494;51.796;10.952;2022-10-16T09:09:36;98970.16;;;17.89;81.11
18988;BME280;5494;51.796;10.952;2022-10-16T09:12:16;98975.41;;;17.89;80.54
18988;BME280;5494;51.796;10.952;2022-10-16T09:15:20;98973.72;;;17.88;80.73
18988;BME280;5494;51.796;10.952;2022-10-16T09:18:00;98971.66;;;18.03;80.46
18988;BME280;5494;51.796;10.952;2022-10-16T09:20:40;98973.28;;;18.15;78.67
18988;BME280;5494;51.796;10.952;2022-10-16T09:23:17;98970.28;;;18.40;76.93
18988;BME280;5494;51.796;10.952;2022-10-16T09:25:49;98984.25;;;18.31;77.34
18988;BME280;5494;51.796;10.952;2022-10-16T09:28:18;98990.06;;;18.35;76.46
18988;BME280;5494;51.796;10.952;2022-10-16T09:30:49;98976.69;;;18.27;75.60
18988;BME280;5494;51.796;10.952;2022-10-16T09:33:23;98974.56;;;18.21;73.88
18988;BME280;5494;51.796;10.952;2022-10-16T09:35:56;98976.00;;;18.25;73.21
18988;BME280;5494;51.796;10.952;2022-10-16T09:38:30;98982.22;;;18.56;72.45
18988;BME280;5494;51.796;10.952;2022-10-16T09:41:02;98968.84;;;18.68;71.84
18988;BME280;5494;51.796;10.952;2022-10-16T09:43:39;98985.81;;;18.75;72.13
18988;BME280;5494;51.796;10.952;2022-10-16T09:46:25;98987.81;;;18.62;72.81
18988;BME280;5494;51.796;10.952;2022-10-16T09:48:57;98988.09;;;18.48;73.71
18988;BME280;5494;51.796;10.952;2022-10-16T09:51:30;98999.06;;;18.64;73.98
18988;BME280;5494;51.796;10.952;2022-10-16T09:54:01;99009.59;;;18.85;73.48
18988;BME280;5494;51.796;10.952;2022-10-16T09:56:33;99005.19;;;19.16;70.10
18988;BME280;5494;51.796;10.952;2022-10-16T09:59:13;99020.25;;;19.04;70.47
18988;BME280;5494;51.796;10.952;2022-10-16T10:01:48;99011.91;;;18.99;70.05
18988;BME280;5494;51.796;10.952;2022-10-16T10:04:19;99002.34;;;19.49;69.00
18988;BME280;5494;51.796;10.952;2022-10-16T10:06:51;99008.56;;;20.08;66.24
18988;BME280;5494;51.796;10.952;2022-10-16T10:09:24;98993.34;;;20.59;63.68
18988;BME280;5494;51.796;10.952;2022-10-16T10:11:55;98993.66;;;21.22;61.73
18988;BME280;5494;51.796;10.952;2022-10-16T10:14:30;98999.72;;;21.69;59.85
18988;BME280;5494;51.796;10.952;2022-10-16T10:17:27;99001.13;;;21.91;58.42
18988;BME280;5494;51.796;10.952;2022-10-16T10:19:59;99015.38;;;21.80;58.90
18988;BME280;5494;51.796;10.952;2022-10-16T10:22:40;99014.94;;;21.20;60.06
18988;BME280;5494;51.796;10.952;2022-10-16T10:25:21;99015.53;;;20.95;61.24
18988;BME280;5494;51.796;10.952;2022-10-16T10:28:49;99024.63;;;20.64;62.17
18988;BME280;5494;51.796;10.952;2022-10-16T10:31:30;99018.53;;;20.54;62.11
18988;BME280;5494;51.796;10.952;2022-10-16T10:34:25;99029.31;;;20.31;63.47
18988;BME280;5494;51.796;10.952;2022-10-16T10:37:04;99032.03;;;20.01;64.03
18988;BME280;5494;51.796;10.952;2022-10-16T10:39:43;99036.03;;;19.76;64.46
18988;BME280;5494;51.796;10.952;2022-10-16T10:42:25;99030.81;;;19.55;65.78
18988;BME280;5494;51.796;10.952;2022-10-16T10:45:26;99036.22;;;19.54;66.21
18988;BME280;5494;51.796;10.952;2022-10-16T10:48:22;99035.25;;;19.55;66.42
18988;BME280;5494;51.796;10.952;2022-10-16T10:51:05;99038.84;;;19.54;66.50
18988;BME280;5494;51.796;10.952;2022-10-16T10:53:47;99036.63;;;19.49;66.64
18988;BME280;5494;51.796;10.952;2022-10-16T10:56:43;99038.41;;;19.49;66.07
18988;BME280;5494;51.796;10.952;2022-10-16T10:59:37;99041.19;;;19.47;66.36
18988;BME280;5494;51.796;10.952;2022-10-16T11:02:18;99048.78;;;19.20;66.81
18988;BME280;5494;51.796;10.952;2022-10-16T11:08:14;99051.16;;;19.02;67.81
18988;BME280;5494;51.796;10.952;2022-10-16T11:10:53;99041.59;;;18.80;68.49
18988;BME280;5494;51.796;10.952;2022-10-16T11:13:31;99048.66;;;18.80;69.13
18988;BME280;5494;51.796;10.952;2022-10-16T11:16:10;99038.56;;;19.06;68.83
18988;BME280;5494;51.796;10.952;2022-10-16T11:18:52;99037.09;;;19.13;65.90
18988;BME280;5494;51.796;10.952;2022-10-16T11:21:24;99035.63;;;19.29;66.18
18988;BME280;5494;51.796;10.952;2022-10-16T11:24:06;99038.53;;;19.47;65.09
18988;BME280;5494;51.796;10.952;2022-10-16T11:26:43;99033.03;;;19.60;63.77
18988;BME280;5494;51.796;10.952;2022-10-16T11:29:23;99041.69;;;19.72;61.34
18988;BME280;5494;51.796;10.952;2022-10-16T11:32:00;99045.97;;;19.73;61.41
18988;BME280;5494;51.796;10.952;2022-10-16T11:34:41;99043.72;;;19.58;62.10
18988;BME280;5494;51.796;10.952;2022-10-16T11:37:18;99041.66;;;19.62;61.99
18988;BME280;5494;51.796;10.952;2022-10-16T11:39:54;99046.75;;;19.54;62.66
18988;BME280;5494;51.796;10.952;2022-10-16T11:42:32;99051.63;;;19.58;61.58
18988;BME280;5494;51.796;10.952;2022-10-16T11:45:24;99049.94;;;19.57;61.61
18988;BME280;5494;51.796;10.952;2022-10-16T11:48:03;99050.22;;;19.54;59.32
18988;BME280;5494;51.796;10.952;2022-10-16T11:50:42;99051.38;;;19.61;60.23
18988;BME280;5494;51.796;10.952;2022-10-16T11:53:21;99046.03;;;19.52;59.86
18988;BME280;5494;51.796;10.952;2022-10-16T11:55:54;99052.91;;;19.43;60.83
18988;BME280;5494;51.796;10.952;2022-10-16T11:58:28;99050.66;;;19.59;59.39
18988;BME280;5494;51.796;10.952;2022-10-16T12:01:16;99048.16;;;19.37;60.10
18988;BME280;5494;51.796;10.952;2022-10-16T12:03:59;99052.88;;;19.34;60.94
18988;BME280;5494;51.796;10.952;2022-10-16T12:06:37;99063.16;;;19.37;61.05
18988;BME280;5494;51.796;10.952;2022-10-16T12:09:16;99062.31;;;19.36;60.98
18988;BME280;5494;51.796;10.952;2022-10-16T12:11:49;99050.56;;;19.40;60.69
18988;BME280;5494;51.796;10.952;2022-10-16T12:14:37;99059.28;;;19.41;59.76
18988;BME280;5494;51.796;10.952;2022-10-16T12:17:36;99058.69;;;19.27;60.94
18988;BME280;5494;51.796;10.952;2022-10-16T12:20:28;99071.53;;;19.42;60.92
18988;BME280;5494;51.796;10.952;2022-10-16T12:23:02;99057.38;;;19.43;58.64
18988;BME280;5494;51.796;10.952;2022-10-16T12:25:34;99056.91;;;19.38;57.28
18988;BME280;5494;51.796;10.952;2022-10-16T12:28:18;99066.63;;;19.37;58.84
18988;BME280;5494;51.796;10.952;2022-10-16T12:30:54;99067.97;;;19.52;59.08
18988;BME280;5494;51.796;10.952;2022-10-16T12:33:26;99070.06;;;19.49;57.22
18988;BME280;5494;51.796;10.952;2022-10-16T12:35:57;99071.88;;;19.58;55.93
18988;BME280;5494;51.796;10.952;2022-10-16T12:38:30;99077.34;;;19.66;55.86
18988;BME280;5494;51.796;10.952;2022-10-16T12:41:03;99077.94;;;19.70;57.13
18988;BME280;5494;51.796;10.952;2022-10-16T12:43:41;99082.56;;;19.87;57.26
18988;BME280;5494;51.796;10.952;2022-10-16T12:46:35;99077.88;;;19.90;56.30
18988;BME280;5494;51.796;10.952;2022-10-16T12:49:22;99077.78;;;19.71;56.18
18988;BME280;5494;51.796;10.952;2022-10-16T12:51:51;99082.09;;;19.72;56.04
18988;BME280;5494;51.796;10.952;2022-10-16T12:54:26;99078.41;;;19.84;55.15
18988;BME280;5494;51.796;10.952;2022-10-16T12:57:26;99095.75;;;19.87;55.11
18988;BME280;5494;51.796;10.952;2022-10-16T13:00:05;99093.41;;;19.84;52.96
18988;BME280;5494;51.796;10.952;2022-10-16T13:03:23;99093.41;;;19.84;54.74
18988;BME280;5494;51.796;10.952;2022-10-16T13:06:08;99089.47;;;19.78;54.50
18988;BME280;5494;51.796;10.952;2022-10-16T13:09:04;99092.50;;;19.74;54.31
18988;BME280;5494;51.796;10.952;2022-10-16T13:12:04;99095.28;;;19.72;54.52
18988;BME280;5494;51.796;10.952;2022-10-16T13:15:04;99099.09;;;19.58;54.56
18988;BME280;5494;51.796;10.952;2022-10-16T13:17:46;99100.78;;;19.59;54.25
18988;BME280;5494;51.796;10.952;2022-10-16T13:20:29;99101.72;;;19.58;54.83
18988;BME280;5494;51.796;10.952;2022-10-16T13:23:13;99113.78;;;19.82;53.68
18988;BME280;5494;51.796;10.952;2022-10-16T13:26:01;99114.97;;;19.68;54.14
18988;BME280;5494;51.796;10.952;2022-10-16T13:28:35;99109.53;;;19.60;54.79
18988;BME280;5494;51.796;10.952;2022-10-16T13:31:18;99107.53;;;19.52;54.96
18988;BME280;5494;51.796;10.952;2022-10-16T13:33:51;99111.19;;;19.61;54.74
18988;BME280;5494;51.796;10.952;2022-10-16T13:36:25;99114.28;;;19.66;55.20
18988;BME280;5494;51.796;10.952;2022-10-16T13:39:12;99113.06;;;19.70;55.23